createdAt,value
2023-08-22T00:02:51.119Z,97.80
2023-08-22T00:06:11.822Z,97.85
2023-08-22T00:09:36.800Z,97.87
2023-08-22T00:13:00.713Z,98.07
2023-08-22T00:16:19.799Z,97.60
2023-08-22T00:19:41.253Z,97.63
2023-08-22T00:22:59.370Z,97.89
2023-08-22T00:26:19.375Z,98.16
2023-08-22T00:29:37.882Z,98.07
2023-08-22T00:32:50.593Z,98.00
2023-08-22T00:36:15.622Z,98.18
2023-08-22T00:39:51.894Z,98.13
2023-08-22T00:43:14.705Z,97.78
2023-08-22T00:46:39.558Z,98.16
2023-08-22T00:49:59.553Z,98.63
2023-08-22T00:53:18.404Z,98.72
2023-08-22T00:56:38.090Z,98.85
2023-08-22T01:00:05.343Z,98.69
2023-08-22T01:03:20.460Z,98.92
2023-08-22T01:07:07.422Z,98.74
2023-08-22T01:10:43.461Z,98.81
2023-08-22T01:14:07.752Z,98.21
2023-08-22T01:17:29.237Z,98.41
2023-08-22T01:21:07.231Z,98.63
2023-08-22T01:24:27.635Z,98.64
2023-08-22T01:27:52.256Z,98.83
2023-08-22T01:31:08.599Z,98.91
2023-08-22T01:34:30.689Z,98.58
2023-08-22T01:37:48.073Z,98.57
2023-08-22T01:41:17.089Z,98.97
2023-08-22T01:44:38.393Z,99.10
2023-08-22T01:47:56.746Z,99.02
2023-08-22T01:51:16.765Z,99.00
2023-08-22T01:54:35.933Z,99.16
2023-08-22T01:57:54.475Z,98.97
2023-08-22T02:01:14.577Z,99.27
2023-08-22T02:04:32.802Z,99.38
2023-08-22T02:07:56.875Z,99.33
2023-08-22T02:11:16.231Z,99.46
2023-08-22T02:14:35.674Z,99.70
2023-08-22T02:17:57.638Z,99.40
2023-08-22T02:21:19.667Z,98.97
2023-08-22T02:24:33.148Z,99.52
2023-08-22T02:27:54.382Z,99.52
2023-08-22T02:31:03.405Z,99.40
2023-08-22T02:34:10.113Z,99.39
2023-08-22T02:37:20.921Z,99.89
2023-08-22T02:40:28.213Z,99.69
2023-08-22T02:43:38.935Z,99.32
2023-08-22T02:46:49.909Z,99.36
2023-08-22T02:50:09.661Z,99.68
2023-08-22T02:53:21.131Z,100.00
2023-08-22T02:56:28.469Z,99.90
2023-08-22T02:59:38.937Z,99.74
2023-08-22T03:02:46.227Z,99.60
2023-08-22T03:06:11.818Z,99.86
2023-08-22T03:09:23.638Z,99.81
2023-08-22T03:12:31.319Z,99.67
2023-08-22T03:15:50.384Z,99.66
2023-08-22T03:19:00.648Z,99.68
2023-08-22T03:22:20.235Z,99.88
2023-08-22T03:25:27.847Z,99.87
2023-08-22T03:28:38.610Z,99.91
2023-08-22T03:31:46.487Z,100.00
2023-08-22T03:34:57.411Z,99.95
2023-08-22T03:38:18.297Z,99.96
2023-08-22T03:41:33.844Z,100.00
2023-08-22T03:44:56.010Z,100.00
2023-08-22T03:48:10.262Z,100.00
2023-08-22T03:51:25.669Z,100.00
2023-08-22T03:54:32.696Z,100.00
2023-08-22T03:57:44.120Z,100.00
2023-08-22T04:01:09.607Z,100.00
2023-08-22T04:04:18.496Z,100.00
2023-08-22T04:07:25.619Z,100.00
2023-08-22T04:10:45.107Z,100.00
2023-08-22T04:13:55.895Z,100.00
2023-08-22T04:17:05.604Z,100.00
2023-08-22T04:20:18.759Z,100.00
2023-08-22T04:23:38.629Z,99.96
2023-08-22T04:26:49.255Z,100.00
2023-08-22T04:30:00.546Z,99.89
2023-08-22T04:33:16.649Z,99.63
2023-08-22T04:36:27.266Z,99.40
2023-08-22T04:39:39.220Z,99.05
2023-08-22T04:42:58.528Z,99.10
2023-08-22T04:46:11.414Z,99.13
2023-08-22T04:49:31.347Z,98.86
2023-08-22T04:52:50.307Z,98.96
2023-08-22T04:56:01.649Z,98.96
2023-08-22T04:59:19.697Z,98.89
2023-08-22T05:02:30.324Z,98.90
2023-08-22T05:05:41.684Z,98.93
2023-08-22T05:09:08.045Z,98.83
2023-08-22T05:12:32.325Z,98.59
2023-08-22T05:15:56.937Z,98.37
2023-08-22T05:19:19.816Z,98.21
2023-08-22T05:22:23.654Z,97.72
2023-08-22T05:25:30.171Z,97.59
2023-08-22T05:28:34.207Z,97.34
2023-08-22T05:31:37.869Z,97.25
2023-08-22T05:34:41.830Z,97.10
2023-08-22T05:37:49.694Z,96.96
2023-08-22T05:40:55.186Z,96.76
2023-08-22T05:44:00.766Z,96.34
2023-08-22T05:47:06.101Z,96.04
2023-08-22T05:50:09.587Z,95.84
2023-08-22T05:53:12.884Z,95.57
2023-08-22T05:56:15.753Z,94.56
2023-08-22T05:59:19.401Z,94.26
2023-08-22T06:02:22.393Z,93.88
2023-08-22T06:05:26.067Z,93.80
2023-08-22T06:08:28.882Z,93.51
2023-08-22T06:11:32.634Z,93.20
2023-08-22T06:14:35.712Z,92.73
2023-08-22T06:17:38.997Z,92.46
2023-08-22T06:20:42.092Z,92.23
2023-08-22T06:23:44.968Z,91.62
2023-08-22T06:26:49.905Z,91.01
2023-08-22T06:29:52.803Z,90.23
2023-08-22T06:32:55.768Z,90.09
2023-08-22T06:35:58.710Z,89.92
2023-08-22T06:39:01.542Z,88.39
2023-08-22T06:42:08.193Z,87.22
2023-08-22T06:45:11.193Z,86.34
2023-08-22T06:48:23.760Z,87.08
2023-08-22T06:51:42.368Z,86.74
2023-08-22T11:10:53.601Z,58.49
2023-08-22T11:14:00.747Z,60.17
2023-08-22T11:17:04.651Z,59.07
2023-08-22T11:20:37.717Z,59.38
2023-08-22T11:23:43.792Z,57.74
2023-08-22T11:26:56.013Z,57.26
2023-08-22T11:30:07.622Z,56.00
2023-08-22T11:33:21.265Z,57.73
2023-08-22T11:36:33.861Z,57.46
2023-08-22T11:39:39.556Z,57.34
2023-08-22T11:42:50.399Z,57.08
2023-08-22T11:45:55.996Z,57.79
2023-08-22T11:49:07.711Z,57.98
2023-08-22T11:52:29.478Z,56.74
2023-08-22T11:55:35.330Z,56.84
2023-08-22T11:58:53.989Z,56.28
2023-08-22T12:02:15.377Z,55.61
2023-08-22T12:05:37.699Z,56.77
2023-08-22T12:08:57.480Z,57.35
2023-08-22T12:12:16.372Z,56.00
2023-08-22T12:15:23.308Z,57.11
2023-08-22T12:18:49.293Z,55.54
2023-08-22T12:21:58.131Z,55.82
2023-08-22T12:25:10.463Z,54.95
2023-08-22T12:28:15.873Z,56.16
2023-08-22T12:31:22.132Z,55.46
2023-08-22T12:34:27.542Z,55.93
2023-08-22T12:37:46.422Z,55.92
2023-08-22T12:41:08.811Z,55.11
2023-08-22T12:44:13.164Z,55.23
2023-08-22T12:47:20.608Z,54.97
2023-08-22T12:50:28.478Z,53.86
2023-08-22T12:53:33.563Z,53.69
2023-08-22T12:56:55.859Z,52.81
2023-08-22T13:00:01.085Z,52.57
2023-08-22T13:03:05.167Z,50.75
2023-08-22T13:06:11.125Z,50.61
2023-08-22T13:09:16.948Z,51.48
2023-08-22T13:12:24.696Z,51.40
2023-08-22T13:15:38.685Z,50.16
2023-08-22T13:18:51.790Z,51.33
2023-08-22T13:22:00.266Z,52.41
2023-08-22T13:25:15.521Z,52.20
2023-08-22T13:28:19.617Z,51.88
2023-08-22T13:31:24.925Z,52.79
2023-08-22T13:34:28.531Z,51.87
2023-08-22T13:37:35.137Z,51.77
2023-08-22T13:40:47.521Z,51.14
2023-08-22T13:43:54.627Z,50.91
2023-08-22T13:47:00.484Z,50.96
2023-08-22T13:50:25.976Z,51.34
2023-08-22T13:54:10.607Z,51.25
2023-08-22T13:57:35.622Z,50.30
2023-08-22T14:00:43.335Z,50.39
2023-08-22T14:04:06.548Z,51.59
2023-08-22T14:07:25.436Z,51.36
2023-08-22T14:10:32.568Z,51.71
2023-08-22T14:14:01.984Z,51.50
2023-08-22T14:17:10.163Z,50.55
2023-08-22T14:20:19.170Z,50.51
2023-08-22T14:23:24.166Z,50.19
2023-08-22T14:26:38.351Z,50.69
2023-08-22T14:29:47.332Z,50.50
2023-08-22T14:32:58.003Z,50.45
2023-08-22T14:36:10.159Z,50.10
2023-08-22T14:41:19.427Z,49.88
2023-08-22T14:44:27.225Z,50.55
2023-08-22T14:47:32.463Z,50.88
2023-08-22T14:50:45.708Z,50.69
2023-08-22T14:53:53.362Z,50.55
2023-08-22T14:56:58.361Z,50.31
2023-08-22T15:00:05.736Z,50.20
2023-08-22T15:03:11.343Z,51.14
2023-08-22T15:06:54.443Z,51.12
2023-08-22T15:10:08.364Z,51.55
2023-08-22T15:13:23.277Z,51.41
2023-08-22T15:16:27.642Z,50.93
2023-08-22T15:19:32.371Z,50.64
2023-08-22T15:22:56.774Z,50.49
2023-08-22T15:26:48.883Z,50.73
2023-08-22T15:30:08.977Z,51.14
2023-08-22T15:33:12.893Z,51.15
2023-08-22T15:36:45.576Z,51.91
2023-08-22T15:39:52.535Z,52.83
2023-08-22T15:43:01.033Z,53.13
2023-08-22T15:46:07.658Z,52.84
2023-08-22T15:49:13.586Z,52.93
2023-08-22T15:52:57.914Z,52.65
2023-08-22T15:56:08.950Z,52.63
2023-08-22T15:59:42.531Z,53.24
2023-08-22T16:03:26.242Z,53.41
2023-08-22T16:06:29.825Z,53.33
2023-08-22T16:10:10.568Z,53.60
2023-08-22T16:13:17.605Z,53.71
2023-08-22T16:16:30.678Z,53.79
2023-08-22T16:20:02.245Z,53.60
2023-08-22T16:23:32.427Z,53.72
2023-08-22T16:26:53.617Z,54.24
2023-08-22T16:30:23.998Z,54.56
2023-08-22T16:33:32.410Z,54.77
2023-08-22T16:36:56.117Z,55.59
2023-08-22T16:40:05.313Z,55.99
2023-08-22T16:43:48.694Z,56.55
2023-08-22T16:47:07.060Z,56.88
2023-08-22T16:50:21.688Z,57.74
2023-08-22T16:53:40.858Z,58.23
2023-08-22T16:57:01.284Z,58.78
2023-08-22T17:00:26.114Z,59.27
2023-08-22T17:03:34.188Z,59.86
2023-08-22T17:07:13.968Z,60.98
2023-08-22T17:10:45.195Z,61.12
2023-08-22T17:14:05.446Z,61.12
2023-08-22T17:17:13.361Z,61.83
2023-08-22T17:20:34.406Z,61.88
2023-08-22T17:23:45.192Z,62.37
2023-08-22T17:27:28.785Z,63.43
2023-08-22T17:31:15.411Z,63.88
2023-08-22T17:34:22.869Z,64.60
2023-08-22T17:38:21.949Z,65.66
2023-08-22T17:41:40.807Z,66.91
2023-08-22T17:44:48.822Z,66.94
2023-08-22T17:48:16.692Z,63.75
2023-08-22T17:52:02.380Z,63.17
2023-08-22T17:55:21.575Z,63.57
2023-08-22T17:58:49.566Z,63.83
2023-08-22T18:02:13.114Z,62.92
2023-08-22T18:05:41.078Z,62.84
2023-08-22T18:09:15.678Z,62.96
2023-08-22T18:12:49.270Z,63.13
2023-08-22T18:16:35.292Z,63.63
2023-08-22T18:19:56.759Z,64.67
2023-08-22T18:23:16.377Z,65.00
2023-08-22T18:26:44.476Z,65.67
2023-08-22T18:29:53.451Z,66.29
2023-08-22T18:33:17.829Z,66.64
2023-08-22T18:36:33.650Z,67.06
2023-08-22T18:39:57.633Z,67.27
2023-08-22T18:43:25.768Z,68.76
2023-08-22T18:46:51.568Z,68.53
2023-08-22T18:50:17.325Z,69.12
2023-08-22T18:53:30.367Z,69.44
2023-08-22T18:56:57.339Z,69.43
2023-08-22T19:00:23.949Z,69.98
2023-08-22T19:03:32.939Z,70.44
2023-08-22T19:07:04.733Z,70.32
2023-08-22T19:10:30.428Z,70.59
2023-08-22T19:13:55.964Z,71.50
2023-08-22T19:17:26.708Z,71.31
2023-08-22T19:21:18.126Z,71.98
2023-08-22T19:24:39.846Z,72.93
2023-08-22T19:28:02.155Z,73.38
2023-08-22T19:31:17.551Z,73.48
2023-08-22T19:34:37.466Z,73.23
2023-08-22T19:38:01.296Z,73.03
2023-08-22T19:41:21.642Z,72.92
2023-08-22T19:44:42.248Z,72.30
2023-08-22T19:48:07.650Z,72.18
2023-08-22T19:51:40.591Z,72.31
2023-08-22T19:55:06.969Z,72.69
2023-08-22T19:58:41.200Z,73.46
2023-08-22T20:02:13.453Z,73.69
2023-08-22T20:05:28.546Z,73.46
2023-08-22T20:09:20.249Z,73.65
2023-08-22T20:12:46.594Z,74.32
2023-08-22T20:16:06.838Z,74.61
2023-08-22T20:19:26.009Z,74.87
2023-08-22T20:22:50.507Z,74.72
2023-08-22T20:26:23.140Z,75.54
2023-08-22T20:29:43.840Z,75.44
2023-08-22T20:33:08.412Z,75.68
2023-08-22T20:36:24.275Z,75.77
2023-08-22T20:39:43.452Z,75.72
2023-08-22T20:43:04.494Z,76.46
2023-08-22T20:46:31.388Z,76.68
2023-08-22T20:49:58.041Z,77.25
2023-08-22T20:53:47.828Z,77.38
2023-08-22T20:57:11.390Z,77.74
2023-08-22T21:00:34.260Z,79.28
2023-08-22T21:03:51.166Z,79.12
2023-08-22T21:07:22.288Z,79.77
2023-08-22T21:10:42.530Z,80.19
2023-08-22T21:14:04.037Z,79.99
2023-08-22T21:17:24.308Z,80.07
2023-08-22T21:20:37.442Z,80.49
2023-08-22T21:24:15.287Z,80.78
2023-08-22T21:28:04.447Z,79.96
2023-08-22T21:31:44.894Z,80.08
2023-08-22T21:34:58.178Z,80.79
2023-08-22T21:38:17.076Z,81.42
2023-08-22T21:41:40.299Z,82.45
2023-08-22T21:45:01.951Z,83.24
2023-08-22T21:48:23.691Z,82.87
2023-08-22T21:52:02.743Z,81.87
2023-08-22T21:55:26.908Z,82.26
2023-08-22T21:58:49.905Z,83.26
2023-08-22T22:02:11.492Z,83.54
2023-08-22T22:05:38.972Z,84.19
2023-08-22T22:08:58.853Z,84.22
2023-08-22T22:12:33.393Z,84.51
2023-08-22T22:15:57.294Z,84.38
2023-08-22T22:19:24.143Z,84.81
2023-08-22T22:23:11.503Z,84.65
2023-08-22T22:26:30.402Z,84.71
2023-08-22T22:29:49.112Z,84.70
2023-08-22T22:33:15.286Z,84.94
2023-08-22T22:36:34.112Z,84.63
2023-08-22T22:39:55.736Z,85.00
2023-08-22T22:43:14.041Z,85.31
2023-08-22T22:46:41.035Z,85.63
2023-08-22T22:50:07.207Z,85.63
2023-08-22T22:53:48.257Z,85.91
2023-08-22T22:57:06.518Z,85.79
2023-08-22T23:00:19.591Z,85.89
2023-08-22T23:03:58.007Z,84.97
2023-08-22T23:07:17.031Z,86.28
2023-08-22T23:10:38.845Z,87.12
2023-08-22T23:14:06.894Z,86.94
2023-08-22T23:17:45.968Z,88.13
2023-08-22T23:21:09.550Z,87.85
2023-08-22T23:24:29.141Z,87.73
2023-08-22T23:27:53.676Z,87.55
2023-08-22T23:31:26.015Z,88.79
2023-08-22T23:34:50.539Z,88.71
2023-08-22T23:38:22.096Z,88.61
2023-08-22T23:41:49.600Z,88.52
2023-08-22T23:45:17.394Z,87.84
2023-08-22T23:48:40.733Z,87.89
2023-08-22T23:52:04.435Z,88.45
2023-08-22T23:55:15.861Z,89.27
2023-08-22T23:58:40.921Z,91.77
